sensor_id;sensor_type;location;lat;lon;timestamp;temperature;humidity
39777;DHT22;25453;48.162;14.510;2023-04-03T00:01:00;9.00;72.30
39777;DHT22;25453;48.162;14.510;2023-04-03T00:03:27;9.00;72.30
39777;DHT22;25453;48.162;14.510;2023-04-03T00:05:54;9.00;72.20
39777;DHT22;25453;48.162;14.510;2023-04-03T00:08:21;9.10;72.10
39777;DHT22;25453;48.162;14.510;2023-04-03T00:10:48;9.10;72.00
39777;DHT22;25453;48.162;14.510;2023-04-03T00:13:16;9.10;72.00
39777;DHT22;25453;48.162;14.510;2023-04-03T00:15:43;9.10;72.00
39777;DHT22;25453;48.162;14.510;2023-04-03T00:18:10;9.10;72.00
39777;DHT22;25453;48.162;14.510;2023-04-03T00:20:37;9.10;71.90
39777;DHT22;25453;48.162;14.510;2023-04-03T00:23:05;9.10;71.90
39777;DHT22;25453;48.162;14.510;2023-04-03T00:25:32;9.10;71.70
39777;DHT22;25453;48.162;14.510;2023-04-03T00:27:59;9.10;71.80
39777;DHT22;25453;48.162;14.510;2023-04-03T00:30:26;9.10;71.60
39777;DHT22;25453;48.162;14.510;2023-04-03T00:32:53;9.10;71.20
39777;DHT22;25453;48.162;14.510;2023-04-03T00:35:21;9.00;71.30
39777;DHT22;25453;48.162;14.510;2023-04-03T00:37:50;9.00;71.50
39777;DHT22;25453;48.162;14.510;2023-04-03T00:40:18;9.00;71.70
39777;DHT22;25453;48.162;14.510;2023-04-03T00:42:45;9.10;71.80
39777;DHT22;25453;48.162;14.510;2023-04-03T00:45:24;9.10;71.70
39777;DHT22;25453;48.162;14.510;2023-04-03T00:47:51;9.10;71.70
39777;DHT22;25453;48.162;14.510;2023-04-03T00:50:18;9.10;71.60
39777;DHT22;25453;48.162;14.510;2023-04-03T00:52:46;9.10;71.50
39777;DHT22;25453;48.162;14.510;2023-04-03T00:55:15;9.10;71.40
39777;DHT22;25453;48.162;14.510;2023-04-03T00:57:43;9.00;71.40
39777;DHT22;25453;48.162;14.510;2023-04-03T01:00:13;9.00;71.40
39777;DHT22;25453;48.162;14.510;2023-04-03T01:02:41;9.10;71.30
39777;DHT22;25453;48.162;14.510;2023-04-03T01:05:08;9.10;71.30
39777;DHT22;25453;48.162;14.510;2023-04-03T01:07:36;9.00;71.20
39777;DHT22;25453;48.162;14.510;2023-04-03T01:10:05;9.00;71.20
39777;DHT22;25453;48.162;14.510;2023-04-03T01:12:34;9.00;71.00
39777;DHT22;25453;48.162;14.510;2023-04-03T01:15:06;9.00;71.20
39777;DHT22;25453;48.162;14.510;2023-04-03T01:25:19;9.00;70.80
39777;DHT22;25453;48.162;14.510;2023-04-03T01:27:46;9.00;70.60
39777;DHT22;25453;48.162;14.510;2023-04-03T01:30:13;9.00;70.50
39777;DHT22;25453;48.162;14.510;2023-04-03T01:32:41;8.90;70.30
39777;DHT22;25453;48.162;14.510;2023-04-03T01:35:09;8.90;70.30
39777;DHT22;25453;48.162;14.510;2023-04-03T01:37:36;8.80;70.20
39777;DHT22;25453;48.162;14.510;2023-04-03T01:40:04;8.70;69.90
39777;DHT22;25453;48.162;14.510;2023-04-03T01:42:32;8.70;69.90
39777;DHT22;25453;48.162;14.510;2023-04-03T01:44:59;8.70;70.10
39777;DHT22;25453;48.162;14.510;2023-04-03T01:47:26;8.70;70.10
39777;DHT22;25453;48.162;14.510;2023-04-03T01:49:53;8.60;70.10
39777;DHT22;25453;48.162;14.510;2023-04-03T01:52:20;8.60;70.30
39777;DHT22;25453;48.162;14.510;2023-04-03T01:54:47;8.70;70.50
39777;DHT22;25453;48.162;14.510;2023-04-03T01:57:14;8.70;70.60
39777;DHT22;25453;48.162;14.510;2023-04-03T01:59:41;8.80;70.60
39777;DHT22;25453;48.162;14.510;2023-04-03T02:02:08;8.80;70.50
39777;DHT22;25453;48.162;14.510;2023-04-03T02:04:36;8.80;70.40
39777;DHT22;25453;48.162;14.510;2023-04-03T02:07:03;8.90;70.20
39777;DHT22;25453;48.162;14.510;2023-04-03T02:09:30;8.90;70.10
39777;DHT22;25453;48.162;14.510;2023-04-03T02:11:57;8.90;70.00
39777;DHT22;25453;48.162;14.510;2023-04-03T02:14:24;8.90;69.90
39777;DHT22;25453;48.162;14.510;2023-04-03T02:16:51;8.90;69.70
39777;DHT22;25453;48.162;14.510;2023-04-03T02:19:18;8.90;69.60
39777;DHT22;25453;48.162;14.510;2023-04-03T02:21:45;8.90;69.50
39777;DHT22;25453;48.162;14.510;2023-04-03T02:24:12;8.90;69.40
39777;DHT22;25453;48.162;14.510;2023-04-03T02:26:39;8.90;69.30
39777;DHT22;25453;48.162;14.510;2023-04-03T02:29:06;8.90;69.30
39777;DHT22;25453;48.162;14.510;2023-04-03T02:31:32;8.90;69.20
39777;DHT22;25453;48.162;14.510;2023-04-03T02:34:00;8.90;69.00
39777;DHT22;25453;48.162;14.510;2023-04-03T02:36:26;8.90;68.90
39777;DHT22;25453;48.162;14.510;2023-04-03T02:38:54;8.90;68.80
39777;DHT22;25453;48.162;14.510;2023-04-03T02:41:21;8.90;68.70
39777;DHT22;25453;48.162;14.510;2023-04-03T02:43:48;8.90;68.60
39777;DHT22;25453;48.162;14.510;2023-04-03T02:46:15;8.90;68.50
39777;DHT22;25453;48.162;14.510;2023-04-03T02:48:42;8.90;68.50
39777;DHT22;25453;48.162;14.510;2023-04-03T02:51:09;8.90;68.40
39777;DHT22;25453;48.162;14.510;2023-04-03T02:53:36;8.90;68.40
39777;DHT22;25453;48.162;14.510;2023-04-03T02:56:03;8.90;68.30
39777;DHT22;25453;48.162;14.510;2023-04-03T02:58:30;8.80;68.20
39777;DHT22;25453;48.162;14.510;2023-04-03T03:00:57;8.80;68.20
39777;DHT22;25453;48.162;14.510;2023-04-03T03:03:24;8.90;68.10
39777;DHT22;25453;48.162;14.510;2023-04-03T03:06:00;8.90;68.10
39777;DHT22;25453;48.162;14.510;2023-04-03T03:08:27;8.80;67.90
39777;DHT22;25453;48.162;14.510;2023-04-03T03:10:54;8.80;67.70
39777;DHT22;25453;48.162;14.510;2023-04-03T03:13:21;8.80;67.70
39777;DHT22;25453;48.162;14.510;2023-04-03T03:15:48;8.80;67.60
39777;DHT22;25453;48.162;14.510;2023-04-03T03:18:15;8.80;67.50
39777;DHT22;25453;48.162;14.510;2023-04-03T03:20:42;8.80;67.50
39777;DHT22;25453;48.162;14.510;2023-04-03T03:23:09;8.80;67.40
39777;DHT22;25453;48.162;14.510;2023-04-03T03:25:39;8.80;67.30
39777;DHT22;25453;48.162;14.510;2023-04-03T03:28:06;8.80;67.20
39777;DHT22;25453;48.162;14.510;2023-04-03T03:30:33;8.80;67.10
39777;DHT22;25453;48.162;14.510;2023-04-03T03:33:01;8.80;67.00
39777;DHT22;25453;48.162;14.510;2023-04-03T03:35:29;8.70;66.90
39777;DHT22;25453;48.162;14.510;2023-04-03T03:37:56;8.70;66.80
39777;DHT22;25453;48.162;14.510;2023-04-03T03:40:23;8.70;66.80
39777;DHT22;25453;48.162;14.510;2023-04-03T03:42:50;8.70;66.80
39777;DHT22;25453;48.162;14.510;2023-04-03T03:45:17;8.70;66.80
39777;DHT22;25453;48.162;14.510;2023-04-03T03:47:44;8.70;66.90
39777;DHT22;25453;48.162;14.510;2023-04-03T03:50:12;8.70;66.80
39777;DHT22;25453;48.162;14.510;2023-04-03T03:52:39;8.70;66.50
39777;DHT22;25453;48.162;14.510;2023-04-03T03:55:06;8.70;66.60
39777;DHT22;25453;48.162;14.510;2023-04-03T03:57:34;8.70;66.70
39777;DHT22;25453;48.162;14.510;2023-04-03T04:00:01;8.60;66.50
39777;DHT22;25453;48.162;14.510;2023-04-03T04:02:28;8.60;66.40
39777;DHT22;25453;48.162;14.510;2023-04-03T04:04:55;8.50;66.60
39777;DHT22;25453;48.162;14.510;2023-04-03T04:07:22;8.50;66.50
39777;DHT22;25453;48.162;14.510;2023-04-03T04:09:49;8.40;66.50
39777;DHT22;25453;48.162;14.510;2023-04-03T04:12:16;8.40;66.60
39777;DHT22;25453;48.162;14.510;2023-04-03T04:14:43;8.40;66.80
39777;DHT22;25453;48.162;14.510;2023-04-03T04:17:13;8.30;66.80
39777;DHT22;25453;48.162;14.510;2023-04-03T04:19:41;8.30;66.80
39777;DHT22;25453;48.162;14.510;2023-04-03T04:22:08;8.30;66.70
39777;DHT22;25453;48.162;14.510;2023-04-03T04:24:34;8.30;66.80
39777;DHT22;25453;48.162;14.510;2023-04-03T04:27:04;8.30;66.50
39777;DHT22;25453;48.162;14.510;2023-04-03T04:29:31;8.30;66.50
39777;DHT22;25453;48.162;14.510;2023-04-03T04:32:02;8.30;66.40
39777;DHT22;25453;48.162;14.510;2023-04-03T04:34:29;8.30;66.30
39777;DHT22;25453;48.162;14.510;2023-04-03T04:36:57;8.30;66.30
39777;DHT22;25453;48.162;14.510;2023-04-03T04:39:24;8.30;66.50
39777;DHT22;25453;48.162;14.510;2023-04-03T04:41:51;8.30;66.70
39777;DHT22;25453;48.162;14.510;2023-04-03T04:44:18;8.30;66.60
39777;DHT22;25453;48.162;14.510;2023-04-03T04:46:45;8.30;66.70
39777;DHT22;25453;48.162;14.510;2023-04-03T04:49:12;8.30;66.60
39777;DHT22;25453;48.162;14.510;2023-04-03T04:51:39;8.40;66.60
39777;DHT22;25453;48.162;14.510;2023-04-03T04:54:17;8.40;66.70
39777;DHT22;25453;48.162;14.510;2023-04-03T04:56:44;8.40;66.70
39777;DHT22;25453;48.162;14.510;2023-04-03T04:59:11;8.40;66.60
39777;DHT22;25453;48.162;14.510;2023-04-03T05:01:38;8.40;66.40
39777;DHT22;25453;48.162;14.510;2023-04-03T05:04:05;8.40;66.50
39777;DHT22;25453;48.162;14.510;2023-04-03T05:06:32;8.40;66.50
39777;DHT22;25453;48.162;14.510;2023-04-03T05:09:01;8.40;66.20
39777;DHT22;25453;48.162;14.510;2023-04-03T05:11:28;8.40;66.20
39777;DHT22;25453;48.162;14.510;2023-04-03T05:13:55;8.50;66.20
39777;DHT22;25453;48.162;14.510;2023-04-03T05:16:22;8.50;66.20
39777;DHT22;25453;48.162;14.510;2023-04-03T05:18:49;8.50;66.00
39777;DHT22;25453;48.162;14.510;2023-04-03T05:21:16;8.50;65.80
39777;DHT22;25453;48.162;14.510;2023-04-03T05:23:44;8.50;65.60
39777;DHT22;25453;48.162;14.510;2023-04-03T05:26:13;8.40;65.50
39777;DHT22;25453;48.162;14.510;2023-04-03T05:28:40;8.40;65.50
39777;DHT22;25453;48.162;14.510;2023-04-03T05:31:07;8.30;65.60
39777;DHT22;25453;48.162;14.510;2023-04-03T05:33:34;8.30;65.80
39777;DHT22;25453;48.162;14.510;2023-04-03T05:36:04;8.30;66.00
39777;DHT22;25453;48.162;14.510;2023-04-03T05:38:31;8.40;65.80
39777;DHT22;25453;48.162;14.510;2023-04-03T05:40:59;8.40;65.80
39777;DHT22;25453;48.162;14.510;2023-04-03T05:43:26;8.40;65.70
39777;DHT22;25453;48.162;14.510;2023-04-03T05:45:53;8.30;65.70
39777;DHT22;25453;48.162;14.510;2023-04-03T05:48:20;8.30;65.70
39777;DHT22;25453;48.162;14.510;2023-04-03T05:50:47;8.30;65.90
39777;DHT22;25453;48.162;14.510;2023-04-03T05:53:16;8.30;66.00
39777;DHT22;25453;48.162;14.510;2023-04-03T05:55:44;8.30;65.90
39777;DHT22;25453;48.162;14.510;2023-04-03T05:58:11;8.30;66.00
39777;DHT22;25453;48.162;14.510;2023-04-03T06:00:38;8.30;66.10
39777;DHT22;25453;48.162;14.510;2023-04-03T06:03:05;8.20;66.00
39777;DHT22;25453;48.162;14.510;2023-04-03T06:05:33;8.30;66.30
39777;DHT22;25453;48.162;14.510;2023-04-03T06:08:00;8.30;66.30
39777;DHT22;25453;48.162;14.510;2023-04-03T06:10:27;8.30;66.30
39777;DHT22;25453;48.162;14.510;2023-04-03T06:12:54;8.30;66.30
39777;DHT22;25453;48.162;14.510;2023-04-03T06:15:21;8.30;66.30
39777;DHT22;25453;48.162;14.510;2023-04-03T06:17:48;8.30;66.40
39777;DHT22;25453;48.162;14.510;2023-04-03T06:20:15;8.40;66.20
39777;DHT22;25453;48.162;14.510;2023-04-03T06:22:42;8.40;66.30
39777;DHT22;25453;48.162;14.510;2023-04-03T06:25:09;8.40;66.20
39777;DHT22;25453;48.162;14.510;2023-04-03T06:27:36;8.40;66.10
39777;DHT22;25453;48.162;14.510;2023-04-03T06:30:04;8.50;66.10
39777;DHT22;25453;48.162;14.510;2023-04-03T06:32:31;8.50;66.10
39777;DHT22;25453;48.162;14.510;2023-04-03T06:34:59;8.50;66.20
39777;DHT22;25453;48.162;14.510;2023-04-03T06:37:26;8.60;66.20
39777;DHT22;25453;48.162;14.510;2023-04-03T06:39:55;8.60;65.90
39777;DHT22;25453;48.162;14.510;2023-04-03T06:42:22;8.60;65.80
39777;DHT22;25453;48.162;14.510;2023-04-03T06:44:49;8.60;66.00
39777;DHT22;25453;48.162;14.510;2023-04-03T06:47:17;8.70;66.00
39777;DHT22;25453;48.162;14.510;2023-04-03T06:49:44;8.70;65.80
39777;DHT22;25453;48.162;14.510;2023-04-03T06:52:11;8.70;65.70
39777;DHT22;25453;48.162;14.510;2023-04-03T06:54:39;8.70;65.70
39777;DHT22;25453;48.162;14.510;2023-04-03T06:57:07;8.70;65.70
39777;DHT22;25453;48.162;14.510;2023-04-03T06:59:34;8.80;65.40
39777;DHT22;25453;48.162;14.510;2023-04-03T07:02:04;8.80;65.40
39777;DHT22;25453;48.162;14.510;2023-04-03T07:04:31;8.80;65.30
39777;DHT22;25453;48.162;14.510;2023-04-03T07:06:59;8.80;65.20
39777;DHT22;25453;48.162;14.510;2023-04-03T07:09:26;8.90;65.20
39777;DHT22;25453;48.162;14.510;2023-04-03T07:11:53;8.90;65.10
39777;DHT22;25453;48.162;14.510;2023-04-03T07:14:20;9.00;65.00
39777;DHT22;25453;48.162;14.510;2023-04-03T07:16:47;9.00;64.80
39777;DHT22;25453;48.162;14.510;2023-04-03T07:19:14;9.00;64.50
39777;DHT22;25453;48.162;14.510;2023-04-03T07:21:41;9.00;64.40
39777;DHT22;25453;48.162;14.510;2023-04-03T07:24:10;9.10;64.30
39777;DHT22;25453;48.162;14.510;2023-04-03T07:26:42;9.10;64.30
39777;DHT22;25453;48.162;14.510;2023-04-03T07:29:09;9.10;64.10
39777;DHT22;25453;48.162;14.510;2023-04-03T07:31:36;9.10;63.90
39777;DHT22;25453;48.162;14.510;2023-04-03T07:34:03;9.10;63.80
39777;DHT22;25453;48.162;14.510;2023-04-03T07:36:30;9.10;63.70
39777;DHT22;25453;48.162;14.510;2023-04-03T07:38:59;9.00;63.70
39777;DHT22;25453;48.162;14.510;2023-04-03T07:41:26;9.00;63.60
39777;DHT22;25453;48.162;14.510;2023-04-03T07:43:55;9.00;63.40
39777;DHT22;25453;48.162;14.510;2023-04-03T07:46:23;9.00;63.40
39777;DHT22;25453;48.162;14.510;2023-04-03T07:48:50;9.00;63.40
39777;DHT22;25453;48.162;14.510;2023-04-03T07:51:17;9.00;63.20
39777;DHT22;25453;48.162;14.510;2023-04-03T07:53:44;9.00;63.10
39777;DHT22;25453;48.162;14.510;2023-04-03T07:56:11;9.00;63.10
39777;DHT22;25453;48.162;14.510;2023-04-03T07:58:38;8.90;63.00
39777;DHT22;25453;48.162;14.510;2023-04-03T08:01:05;8.90;63.00
39777;DHT22;25453;48.162;14.510;2023-04-03T08:03:32;8.80;62.90
39777;DHT22;25453;48.162;14.510;2023-04-03T08:06:03;8.80;63.00
39777;DHT22;25453;48.162;14.510;2023-04-03T08:08:33;8.80;63.00
39777;DHT22;25453;48.162;14.510;2023-04-03T08:11:00;8.70;62.90
39777;DHT22;25453;48.162;14.510;2023-04-03T08:13:30;8.70;63.10
39777;DHT22;25453;48.162;14.510;2023-04-03T08:15:57;8.60;62.90
39777;DHT22;25453;48.162;14.510;2023-04-03T08:18:25;8.50;63.00
39777;DHT22;25453;48.162;14.510;2023-04-03T08:20:53;8.40;62.80
39777;DHT22;25453;48.162;14.510;2023-04-03T08:23:20;8.30;62.90
39777;DHT22;25453;48.162;14.510;2023-04-03T08:25:47;8.00;63.20
39777;DHT22;25453;48.162;14.510;2023-04-03T08:28:14;7.90;63.60
39777;DHT22;25453;48.162;14.510;2023-04-03T08:30:41;7.80;64.20
39777;DHT22;25453;48.162;14.510;2023-04-03T08:33:09;7.70;64.60
39777;DHT22;25453;48.162;14.510;2023-04-03T08:35:40;7.60;64.60
39777;DHT22;25453;48.162;14.510;2023-04-03T08:38:09;7.50;65.20
39777;DHT22;25453;48.162;14.510;2023-04-03T08:40:37;7.50;65.30
39777;DHT22;25453;48.162;14.510;2023-04-03T08:48:11;7.10;65.80
39777;DHT22;25453;48.162;14.510;2023-04-03T08:50:40;7.10;66.30
39777;DHT22;25453;48.162;14.510;2023-04-03T08:53:12;7.10;66.80
39777;DHT22;25453;48.162;14.510;2023-04-03T08:55:43;7.10;67.10
39777;DHT22;25453;48.162;14.510;2023-04-03T08:58:20;7.20;67.40
39777;DHT22;25453;48.162;14.510;2023-04-03T09:03:16;7.30;67.50
39777;DHT22;25453;48.162;14.510;2023-04-03T09:06:00;7.40;67.40
39777;DHT22;25453;48.162;14.510;2023-04-03T09:11:12;7.50;67.70
39777;DHT22;25453;48.162;14.510;2023-04-03T09:16:16;7.60;67.80
39777;DHT22;25453;48.162;14.510;2023-04-03T09:18:48;7.70;67.80
39777;DHT22;25453;48.162;14.510;2023-04-03T09:21:22;7.70;67.80
39777;DHT22;25453;48.162;14.510;2023-04-03T09:23:52;7.80;68.10
39777;DHT22;25453;48.162;14.510;2023-04-03T09:28:54;7.90;68.20
39777;DHT22;25453;48.162;14.510;2023-04-03T09:31:22;8.00;68.30
39777;DHT22;25453;48.162;14.510;2023-04-03T09:33:50;8.10;68.30
39777;DHT22;25453;48.162;14.510;2023-04-03T09:39:05;8.30;67.60
39777;DHT22;25453;48.162;14.510;2023-04-03T09:41:34;8.30;67.40
39777;DHT22;25453;48.162;14.510;2023-04-03T09:44:02;8.30;67.10
39777;DHT22;25453;48.162;14.510;2023-04-03T09:46:30;8.30;67.20
39777;DHT22;25453;48.162;14.510;2023-04-03T09:48:59;8.30;67.10
39777;DHT22;25453;48.162;14.510;2023-04-03T09:51:35;8.40;67.00
39777;DHT22;25453;48.162;14.510;2023-04-03T09:54:23;8.50;66.90
39777;DHT22;25453;48.162;14.510;2023-04-03T09:56:49;8.60;66.90
39777;DHT22;25453;48.162;14.510;2023-04-03T09:59:17;8.70;66.80
39777;DHT22;25453;48.162;14.510;2023-04-03T10:01:58;8.80;66.70
39777;DHT22;25453;48.162;14.510;2023-04-03T10:04:25;8.90;66.20
39777;DHT22;25453;48.162;14.510;2023-04-03T10:07:03;8.90;65.80
39777;DHT22;25453;48.162;14.510;2023-04-03T10:09:31;9.00;65.90
39777;DHT22;25453;48.162;14.510;2023-04-03T10:12:00;9.10;65.40
39777;DHT22;25453;48.162;14.510;2023-04-03T10:14:28;9.20;65.60
39777;DHT22;25453;48.162;14.510;2023-04-03T10:17:03;9.30;65.10
39777;DHT22;25453;48.162;14.510;2023-04-03T10:27:52;9.70;63.60
39777;DHT22;25453;48.162;14.510;2023-04-03T10:32:58;9.90;63.10
39777;DHT22;25453;48.162;14.510;2023-04-03T10:40:45;10.10;61.30
39777;DHT22;25453;48.162;14.510;2023-04-03T10:43:17;10.10;61.40
39777;DHT22;25453;48.162;14.510;2023-04-03T10:45:53;10.20;61.40
39777;DHT22;25453;48.162;14.510;2023-04-03T10:53:44;10.40;60.20
39777;DHT22;25453;48.162;14.510;2023-04-03T10:56:27;10.40;59.80
39777;DHT22;25453;48.162;14.510;2023-04-03T11:01:46;10.50;59.10
39777;DHT22;25453;48.162;14.510;2023-04-03T11:04:15;10.50;58.80
39777;DHT22;25453;48.162;14.510;2023-04-03T11:09:32;10.50;58.70
39777;DHT22;25453;48.162;14.510;2023-04-03T11:12:11;10.50;58.30
39777;DHT22;25453;48.162;14.510;2023-04-03T11:14:39;10.50;57.80
39777;DHT22;25453;48.162;14.510;2023-04-03T11:22:26;10.60;57.20
39777;DHT22;25453;48.162;14.510;2023-04-03T11:27:25;10.90;57.50
39777;DHT22;25453;48.162;14.510;2023-04-03T11:29:54;11.30;58.30
39777;DHT22;25453;48.162;14.510;2023-04-03T11:32:29;11.70;57.50
39777;DHT22;25453;48.162;14.510;2023-04-03T11:35:00;12.10;55.90
39777;DHT22;25453;48.162;14.510;2023-04-03T11:40:00;12.60;54.20
39777;DHT22;25453;48.162;14.510;2023-04-03T11:42:39;12.70;53.10
39777;DHT22;25453;48.162;14.510;2023-04-03T11:45:17;12.60;52.80
39777;DHT22;25453;48.162;14.510;2023-04-03T11:47:49;12.60;52.00
39777;DHT22;25453;48.162;14.510;2023-04-03T11:50:40;12.50;52.20
39777;DHT22;25453;48.162;14.510;2023-04-03T11:58:12;13.20;52.30
39777;DHT22;25453;48.162;14.510;2023-04-03T12:19:03;13.50;47.00
39777;DHT22;25453;48.162;14.510;2023-04-03T12:24:02;12.80;46.90
39777;DHT22;25453;48.162;14.510;2023-04-03T12:26:34;12.50;47.10
39777;DHT22;25453;48.162;14.510;2023-04-03T12:29:17;12.20;47.20
39777;DHT22;25453;48.162;14.510;2023-04-03T12:31:49;11.90;47.50
39777;DHT22;25453;48.162;14.510;2023-04-03T12:34:26;11.70;47.80
39777;DHT22;25453;48.162;14.510;2023-04-03T12:39:36;11.50;48.90
39777;DHT22;25453;48.162;14.510;2023-04-03T12:44:54;11.60;48.80
39777;DHT22;25453;48.162;14.510;2023-04-03T12:47:24;11.60;48.60
39777;DHT22;25453;48.162;14.510;2023-04-03T12:49:52;11.50;48.40
39777;DHT22;25453;48.162;14.510;2023-04-03T12:52:27;11.50;48.70
39777;DHT22;25453;48.162;14.510;2023-04-03T12:54:57;11.40;48.10
39777;DHT22;25453;48.162;14.510;2023-04-03T12:57:25;11.40;48.20
39777;DHT22;25453;48.162;14.510;2023-04-03T12:59:53;11.40;48.20
39777;DHT22;25453;48.162;14.510;2023-04-03T13:02:22;11.40;48.30
39777;DHT22;25453;48.162;14.510;2023-04-03T13:04:51;11.50;48.30
39777;DHT22;25453;48.162;14.510;2023-04-03T13:07:23;11.50;47.70
39777;DHT22;25453;48.162;14.510;2023-04-03T13:09:55;11.40;47.70
39777;DHT22;25453;48.162;14.510;2023-04-03T13:12:23;11.40;47.20
39777;DHT22;25453;48.162;14.510;2023-04-03T13:14:57;11.30;46.90
39777;DHT22;25453;48.162;14.510;2023-04-03T13:17:24;11.20;47.30
39777;DHT22;25453;48.162;14.510;2023-04-03T13:19:52;11.20;47.40
39777;DHT22;25453;48.162;14.510;2023-04-03T13:22:36;11.20;47.50
39777;DHT22;25453;48.162;14.510;2023-04-03T13:25:06;11.20;47.70
39777;DHT22;25453;48.162;14.510;2023-04-03T13:27:34;11.20;47.90
39777;DHT22;25453;48.162;14.510;2023-04-03T13:30:02;11.20;47.90
39777;DHT22;25453;48.162;14.510;2023-04-03T13:32:30;11.20;47.80
39777;DHT22;25453;48.162;14.510;2023-04-03T13:34:58;11.20;47.80
39777;DHT22;25453;48.162;14.510;2023-04-03T13:37:53;11.30;47.90
39777;DHT22;25453;48.162;14.510;2023-04-03T13:40:21;11.30;48.10
39777;DHT22;25453;48.162;14.510;2023-04-03T13:42:48;11.40;48.10
39777;DHT22;25453;48.162;14.510;2023-04-03T13:45:28;11.40;47.60
39777;DHT22;25453;48.162;14.510;2023-04-03T13:51:00;11.30;47.10
39777;DHT22;25453;48.162;14.510;2023-04-03T13:53:29;11.30;47.40
39777;DHT22;25453;48.162;14.510;2023-04-03T13:58:25;11.30;47.60
39777;DHT22;25453;48.162;14.510;2023-04-03T14:03:32;11.50;47.50
39777;DHT22;25453;48.162;14.510;2023-04-03T14:05:59;11.60;46.90
39777;DHT22;25453;48.162;14.510;2023-04-03T14:08:27;11.60;46.50
39777;DHT22;25453;48.162;14.510;2023-04-03T14:11:27;11.50;46.20
39777;DHT22;25453;48.162;14.510;2023-04-03T14:14:00;11.40;46.20
39777;DHT22;25453;48.162;14.510;2023-04-03T14:16:29;11.40;46.80
39777;DHT22;25453;48.162;14.510;2023-04-03T14:18:57;11.30;46.60
39777;DHT22;25453;48.162;14.510;2023-04-03T14:21:24;11.30;46.70
39777;DHT22;25453;48.162;14.510;2023-04-03T14:23:52;11.40;46.90
39777;DHT22;25453;48.162;14.510;2023-04-03T14:26:21;11.50;46.90
39777;DHT22;25453;48.162;14.510;2023-04-03T14:28:49;11.60;47.10
39777;DHT22;25453;48.162;14.510;2023-04-03T14:31:18;11.70;46.90
39777;DHT22;25453;48.162;14.510;2023-04-03T14:33:49;11.80;46.00
39777;DHT22;25453;48.162;14.510;2023-04-03T14:36:18;11.80;45.80
39777;DHT22;25453;48.162;14.510;2023-04-03T14:38:45;11.80;45.10
39777;DHT22;25453;48.162;14.510;2023-04-03T14:41:13;11.60;44.90
39777;DHT22;25453;48.162;14.510;2023-04-03T14:43:43;11.50;45.10
39777;DHT22;25453;48.162;14.510;2023-04-03T14:46:14;11.30;45.30
39777;DHT22;25453;48.162;14.510;2023-04-03T14:48:42;11.20;45.40
39777;DHT22;25453;48.162;14.510;2023-04-03T14:51:10;11.00;45.10
39777;DHT22;25453;48.162;14.510;2023-04-03T14:53:38;10.80;44.90
39777;DHT22;25453;48.162;14.510;2023-04-03T14:56:25;10.70;44.90
39777;DHT22;25453;48.162;14.510;2023-04-03T14:58:55;10.50;44.70
39777;DHT22;25453;48.162;14.510;2023-04-03T15:01:24;10.40;45.00
39777;DHT22;25453;48.162;14.510;2023-04-03T15:03:53;10.40;45.20
39777;DHT22;25453;48.162;14.510;2023-04-03T15:06:21;10.50;45.10
39777;DHT22;25453;48.162;14.510;2023-04-03T15:08:48;10.50;44.70
39777;DHT22;25453;48.162;14.510;2023-04-03T15:11:16;10.40;44.50
39777;DHT22;25453;48.162;14.510;2023-04-03T15:13:43;10.40;44.90
39777;DHT22;25453;48.162;14.510;2023-04-03T15:16:17;10.50;45.40
39777;DHT22;25453;48.162;14.510;2023-04-03T15:18:45;10.60;45.50
39777;DHT22;25453;48.162;14.510;2023-04-03T15:21:12;10.60;45.50
39777;DHT22;25453;48.162;14.510;2023-04-03T15:23:39;10.70;45.70
39777;DHT22;25453;48.162;14.510;2023-04-03T15:26:06;10.70;45.30
39777;DHT22;25453;48.162;14.510;2023-04-03T15:28:40;10.60;45.00
39777;DHT22;25453;48.162;14.510;2023-04-03T15:31:08;10.60;45.00
39777;DHT22;25453;48.162;14.510;2023-04-03T15:33:35;10.40;44.70
39777;DHT22;25453;48.162;14.510;2023-04-03T15:36:03;10.30;44.50
39777;DHT22;25453;48.162;14.510;2023-04-03T15:38:43;10.20;44.20
39777;DHT22;25453;48.162;14.510;2023-04-03T15:41:10;10.00;44.30
39777;DHT22;25453;48.162;14.510;2023-04-03T15:43:37;9.90;44.30
39777;DHT22;25453;48.162;14.510;2023-04-03T15:46:03;9.90;44.60
39777;DHT22;25453;48.162;14.510;2023-04-03T15:48:31;10.00;44.70
39777;DHT22;25453;48.162;14.510;2023-04-03T15:50:59;10.00;44.90
39777;DHT22;25453;48.162;14.510;2023-04-03T15:53:26;10.00;45.00
39777;DHT22;25453;48.162;14.510;2023-04-03T15:55:53;9.90;45.20
39777;DHT22;25453;48.162;14.510;2023-04-03T15:58:20;9.90;45.30
39777;DHT22;25453;48.162;14.510;2023-04-03T16:00:47;9.90;45.50
39777;DHT22;25453;48.162;14.510;2023-04-03T16:03:15;9.90;45.60
39777;DHT22;25453;48.162;14.510;2023-04-03T16:05:43;9.80;45.60
39777;DHT22;25453;48.162;14.510;2023-04-03T16:08:10;9.70;45.70
39777;DHT22;25453;48.162;14.510;2023-04-03T16:10:37;9.60;45.60
39777;DHT22;25453;48.162;14.510;2023-04-03T16:13:05;9.50;45.50
39777;DHT22;25453;48.162;14.510;2023-04-03T16:15:32;9.40;45.50
39777;DHT22;25453;48.162;14.510;2023-04-03T16:18:00;9.40;45.60
39777;DHT22;25453;48.162;14.510;2023-04-03T16:20:27;9.30;45.40
39777;DHT22;25453;48.162;14.510;2023-04-03T16:22:55;9.30;45.20
39777;DHT22;25453;48.162;14.510;2023-04-03T16:25:22;9.20;45.40
39777;DHT22;25453;48.162;14.510;2023-04-03T16:27:49;9.20;46.00
39777;DHT22;25453;48.162;14.510;2023-04-03T16:30:16;9.20;46.70
39777;DHT22;25453;48.162;14.510;2023-04-03T16:32:43;9.10;46.80
39777;DHT22;25453;48.162;14.510;2023-04-03T16:35:10;9.10;47.20
39777;DHT22;25453;48.162;14.510;2023-04-03T16:37:38;9.10;47.70
39777;DHT22;25453;48.162;14.510;2023-04-03T16:40:06;9.10;48.00
39777;DHT22;25453;48.162;14.510;2023-04-03T16:42:34;9.10;48.30
39777;DHT22;25453;48.162;14.510;2023-04-03T16:45:04;9.10;48.50
39777;DHT22;25453;48.162;14.510;2023-04-03T16:47:32;9.00;48.70
39777;DHT22;25453;48.162;14.510;2023-04-03T16:49:59;9.00;48.70
39777;DHT22;25453;48.162;14.510;2023-04-03T16:52:27;9.00;48.90
39777;DHT22;25453;48.162;14.510;2023-04-03T16:54:54;9.00;49.10
39777;DHT22;25453;48.162;14.510;2023-04-03T16:57:22;9.00;49.10
39777;DHT22;25453;48.162;14.510;2023-04-03T16:59:51;8.90;49.20
39777;DHT22;25453;48.162;14.510;2023-04-03T17:02:19;8.90;49.20
39777;DHT22;25453;48.162;14.510;2023-04-03T17:04:47;8.90;49.30
39777;DHT22;25453;48.162;14.510;2023-04-03T17:07:17;8.80;49.40
39777;DHT22;25453;48.162;14.510;2023-04-03T17:09:44;8.80;49.60
39777;DHT22;25453;48.162;14.510;2023-04-03T17:12:11;8.70;49.60
39777;DHT22;25453;48.162;14.510;2023-04-03T17:14:38;8.70;49.90
39777;DHT22;25453;48.162;14.510;2023-04-03T17:17:05;8.60;50.10
39777;DHT22;25453;48.162;14.510;2023-04-03T17:19:32;8.60;50.20